sensor_id;sensor_type;location;lat;lon;timestamp;P1;durP1;ratioP1;P2;durP2;ratioP2
10295;SDS011;5193;51.032;6.356;2022-10-22T00:00:52;3.73;;;2.40;;
10295;SDS011;5193;51.032;6.356;2022-10-22T00:03:18;6.53;;;2.33;;
10295;SDS011;5193;51.032;6.356;2022-10-22T00:05:43;7.20;;;2.83;;
10295;SDS011;5193;51.032;6.356;2022-10-22T00:08:09;7.50;;;2.10;;
10295;SDS011;5193;51.032;6.356;2022-10-22T00:10:36;5.07;;;2.00;;
10295;SDS011;5193;51.032;6.356;2022-10-22T00:13:02;6.03;;;2.77;;
10295;SDS011;5193;51.032;6.356;2022-10-22T00:15:28;3.97;;;2.03;;
10295;SDS011;5193;51.032;6.356;2022-10-22T00:17:53;6.43;;;2.63;;
10295;SDS011;5193;51.032;6.356;2022-10-22T00:20:19;12.30;;;2.20;;
10295;SDS011;5193;51.032;6.356;2022-10-22T00:22:45;9.20;;;2.30;;
10295;SDS011;5193;51.032;6.356;2022-10-22T00:25:10;7.27;;;2.67;;
10295;SDS011;5193;51.032;6.356;2022-10-22T00:27:36;4.23;;;2.13;;
10295;SDS011;5193;51.032;6.356;2022-10-22T00:30:02;4.90;;;2.17;;
10295;SDS011;5193;51.032;6.356;2022-10-22T00:32:28;4.43;;;2.23;;
10295;SDS011;5193;51.032;6.356;2022-10-22T00:34:53;4.33;;;2.37;;
10295;SDS011;5193;51.032;6.356;2022-10-22T00:37:19;2.73;;;2.40;;
10295;SDS011;5193;51.032;6.356;2022-10-22T00:39:44;4.03;;;2.10;;
10295;SDS011;5193;51.032;6.356;2022-10-22T00:42:17;6.37;;;2.27;;
10295;SDS011;5193;51.032;6.356;2022-10-22T00:48:11;6.77;;;2.60;;
10295;SDS011;5193;51.032;6.356;2022-10-22T00:52:59;6.67;;;2.63;;
10295;SDS011;5193;51.032;6.356;2022-10-22T00:55:27;7.10;;;2.40;;
10295;SDS011;5193;51.032;6.356;2022-10-22T00:57:54;7.47;;;2.93;;
10295;SDS011;5193;51.032;6.356;2022-10-22T01:00:21;5.53;;;2.40;;
10295;SDS011;5193;51.032;6.356;2022-10-22T01:02:47;5.53;;;2.80;;
10295;SDS011;5193;51.032;6.356;2022-10-22T01:05:15;4.77;;;2.67;;
10295;SDS011;5193;51.032;6.356;2022-10-22T01:07:42;4.23;;;2.40;;
10295;SDS011;5193;51.032;6.356;2022-10-22T01:13:15;6.50;;;3.30;;
10295;SDS011;5193;51.032;6.356;2022-10-22T01:15:47;6.67;;;3.17;;
10295;SDS011;5193;51.032;6.356;2022-10-22T01:21:31;6.13;;;2.90;;
10295;SDS011;5193;51.032;6.356;2022-10-22T01:26:58;8.00;;;2.77;;
10295;SDS011;5193;51.032;6.356;2022-10-22T01:29:41;6.83;;;3.50;;
10295;SDS011;5193;51.032;6.356;2022-10-22T01:32:16;6.77;;;3.17;;
10295;SDS011;5193;51.032;6.356;2022-10-22T01:34:48;6.40;;;3.40;;
10295;SDS011;5193;51.032;6.356;2022-10-22T01:37:17;5.97;;;3.03;;
10295;SDS011;5193;51.032;6.356;2022-10-22T01:39:47;5.60;;;2.97;;
10295;SDS011;5193;51.032;6.356;2022-10-22T01:42:14;8.70;;;3.40;;
10295;SDS011;5193;51.032;6.356;2022-10-22T01:44:40;6.40;;;3.57;;
10295;SDS011;5193;51.032;6.356;2022-10-22T01:47:13;5.33;;;3.13;;
10295;SDS011;5193;51.032;6.356;2022-10-22T01:55:32;8.37;;;3.30;;
10295;SDS011;5193;51.032;6.356;2022-10-22T02:01:25;4.80;;;3.30;;
10295;SDS011;5193;51.032;6.356;2022-10-22T02:04:10;3.27;;;2.53;;
10295;SDS011;5193;51.032;6.356;2022-10-22T02:06:58;4.43;;;2.53;;
10295;SDS011;5193;51.032;6.356;2022-10-22T02:09:28;6.10;;;2.70;;
10295;SDS011;5193;51.032;6.356;2022-10-22T02:11:57;4.43;;;2.73;;
10295;SDS011;5193;51.032;6.356;2022-10-22T02:14:25;7.90;;;2.60;;
10295;SDS011;5193;51.032;6.356;2022-10-22T02:16:53;6.17;;;3.20;;
10295;SDS011;5193;51.032;6.356;2022-10-22T02:19:26;8.47;;;3.30;;
10295;SDS011;5193;51.032;6.356;2022-10-22T02:21:59;7.07;;;3.20;;
10295;SDS011;5193;51.032;6.356;2022-10-22T02:24:25;5.17;;;2.53;;
10295;SDS011;5193;51.032;6.356;2022-10-22T02:26:58;5.50;;;3.43;;
10295;SDS011;5193;51.032;6.356;2022-10-22T02:29:38;8.20;;;3.20;;
10295;SDS011;5193;51.032;6.356;2022-10-22T02:32:10;6.33;;;2.70;;
10295;SDS011;5193;51.032;6.356;2022-10-22T02:34:40;4.70;;;2.80;;
10295;SDS011;5193;51.032;6.356;2022-10-22T02:37:05;3.97;;;2.40;;
10295;SDS011;5193;51.032;6.356;2022-10-22T02:39:33;3.50;;;2.83;;
10295;SDS011;5193;51.032;6.356;2022-10-22T02:42:00;8.07;;;3.07;;
10295;SDS011;5193;51.032;6.356;2022-10-22T02:44:26;5.57;;;2.60;;
10295;SDS011;5193;51.032;6.356;2022-10-22T02:46:52;7.10;;;3.10;;
10295;SDS011;5193;51.032;6.356;2022-10-22T02:49:18;10.13;;;3.00;;
10295;SDS011;5193;51.032;6.356;2022-10-22T02:51:43;7.57;;;2.80;;
10295;SDS011;5193;51.032;6.356;2022-10-22T02:54:09;6.20;;;2.73;;
10295;SDS011;5193;51.032;6.356;2022-10-22T02:56:35;5.57;;;2.80;;
10295;SDS011;5193;51.032;6.356;2022-10-22T02:59:00;4.87;;;2.93;;
10295;SDS011;5193;51.032;6.356;2022-10-22T03:01:26;5.37;;;2.97;;
10295;SDS011;5193;51.032;6.356;2022-10-22T03:03:51;6.60;;;3.10;;
10295;SDS011;5193;51.032;6.356;2022-10-22T03:06:17;4.43;;;3.30;;
10295;SDS011;5193;51.032;6.356;2022-10-22T03:08:43;4.30;;;2.93;;
10295;SDS011;5193;51.032;6.356;2022-10-22T03:11:08;7.17;;;3.57;;
10295;SDS011;5193;51.032;6.356;2022-10-22T03:13:34;10.30;;;3.50;;
10295;SDS011;5193;51.032;6.356;2022-10-22T03:15:59;8.07;;;3.30;;
10295;SDS011;5193;51.032;6.356;2022-10-22T03:18:25;6.70;;;3.67;;
10295;SDS011;5193;51.032;6.356;2022-10-22T03:20:58;5.63;;;3.40;;
10295;SDS011;5193;51.032;6.356;2022-10-22T03:23:31;7.07;;;3.00;;
10295;SDS011;5193;51.032;6.356;2022-10-22T03:25:57;9.67;;;3.27;;
10295;SDS011;5193;51.032;6.356;2022-10-22T03:28:23;4.77;;;2.90;;
10295;SDS011;5193;51.032;6.356;2022-10-22T03:30:50;8.67;;;3.27;;
10295;SDS011;5193;51.032;6.356;2022-10-22T03:33:16;11.37;;;3.50;;
10295;SDS011;5193;51.032;6.356;2022-10-22T03:35:42;4.57;;;3.03;;
10295;SDS011;5193;51.032;6.356;2022-10-22T03:38:10;4.07;;;2.97;;
10295;SDS011;5193;51.032;6.356;2022-10-22T03:40:37;5.47;;;2.70;;
10295;SDS011;5193;51.032;6.356;2022-10-22T03:43:03;4.00;;;2.80;;
10295;SDS011;5193;51.032;6.356;2022-10-22T03:45:28;7.20;;;2.70;;
10295;SDS011;5193;51.032;6.356;2022-10-22T03:47:54;4.77;;;2.90;;
10295;SDS011;5193;51.032;6.356;2022-10-22T03:50:19;5.37;;;2.70;;
10295;SDS011;5193;51.032;6.356;2022-10-22T03:52:45;9.53;;;3.23;;
10295;SDS011;5193;51.032;6.356;2022-10-22T03:55:11;4.10;;;2.93;;
10295;SDS011;5193;51.032;6.356;2022-10-22T03:57:36;4.63;;;3.03;;
10295;SDS011;5193;51.032;6.356;2022-10-22T04:00:02;6.17;;;2.83;;
10295;SDS011;5193;51.032;6.356;2022-10-22T04:02:29;8.30;;;3.00;;
10295;SDS011;5193;51.032;6.356;2022-10-22T04:04:55;4.13;;;2.77;;
10295;SDS011;5193;51.032;6.356;2022-10-22T04:07:20;6.17;;;2.93;;
10295;SDS011;5193;51.032;6.356;2022-10-22T04:09:46;6.20;;;2.97;;
10295;SDS011;5193;51.032;6.356;2022-10-22T04:12:11;5.63;;;3.20;;
10295;SDS011;5193;51.032;6.356;2022-10-22T04:14:37;5.60;;;3.33;;
10295;SDS011;5193;51.032;6.356;2022-10-22T04:17:03;7.47;;;3.47;;
10295;SDS011;5193;51.032;6.356;2022-10-22T04:19:28;6.30;;;3.47;;
10295;SDS011;5193;51.032;6.356;2022-10-22T04:21:56;5.53;;;3.20;;
10295;SDS011;5193;51.032;6.356;2022-10-22T04:24:23;6.37;;;3.60;;
10295;SDS011;5193;51.032;6.356;2022-10-22T04:26:48;9.27;;;3.90;;
10295;SDS011;5193;51.032;6.356;2022-10-22T04:29:14;11.60;;;3.80;;
10295;SDS011;5193;51.032;6.356;2022-10-22T04:31:40;8.67;;;3.97;;
10295;SDS011;5193;51.032;6.356;2022-10-22T04:34:05;8.50;;;3.60;;
10295;SDS011;5193;51.032;6.356;2022-10-22T04:36:31;7.53;;;3.67;;
10295;SDS011;5193;51.032;6.356;2022-10-22T04:38:59;9.73;;;3.67;;
10295;SDS011;5193;51.032;6.356;2022-10-22T04:41:26;8.07;;;3.87;;
10295;SDS011;5193;51.032;6.356;2022-10-22T04:43:54;7.03;;;4.00;;
10295;SDS011;5193;51.032;6.356;2022-10-22T04:46:20;8.83;;;3.93;;
10295;SDS011;5193;51.032;6.356;2022-10-22T04:48:47;5.43;;;3.70;;
10295;SDS011;5193;51.032;6.356;2022-10-22T04:51:15;5.83;;;4.17;;
10295;SDS011;5193;51.032;6.356;2022-10-22T04:53:42;8.67;;;4.43;;
10295;SDS011;5193;51.032;6.356;2022-10-22T04:58:36;7.90;;;4.13;;
10295;SDS011;5193;51.032;6.356;2022-10-22T05:01:13;9.07;;;3.90;;
10295;SDS011;5193;51.032;6.356;2022-10-22T05:03:43;10.87;;;4.10;;
10295;SDS011;5193;51.032;6.356;2022-10-22T05:06:10;5.83;;;4.00;;
10295;SDS011;5193;51.032;6.356;2022-10-22T05:08:36;10.83;;;3.70;;
10295;SDS011;5193;51.032;6.356;2022-10-22T05:11:15;6.77;;;3.40;;
10295;SDS011;5193;51.032;6.356;2022-10-22T05:13:42;4.63;;;3.33;;
10295;SDS011;5193;51.032;6.356;2022-10-22T05:16:09;10.23;;;3.50;;
10295;SDS011;5193;51.032;6.356;2022-10-22T05:18:35;9.20;;;3.60;;
10295;SDS011;5193;51.032;6.356;2022-10-22T05:21:02;5.27;;;3.50;;
10295;SDS011;5193;51.032;6.356;2022-10-22T05:23:32;10.87;;;3.43;;
10295;SDS011;5193;51.032;6.356;2022-10-22T05:26:00;6.77;;;3.63;;
10295;SDS011;5193;51.032;6.356;2022-10-22T05:28:27;4.73;;;3.27;;
10295;SDS011;5193;51.032;6.356;2022-10-22T05:30:53;5.93;;;3.30;;
10295;SDS011;5193;51.032;6.356;2022-10-22T05:33:20;6.73;;;3.03;;
10295;SDS011;5193;51.032;6.356;2022-10-22T05:35:47;9.50;;;3.23;;
10295;SDS011;5193;51.032;6.356;2022-10-22T05:38:13;6.00;;;3.37;;
10295;SDS011;5193;51.032;6.356;2022-10-22T05:40:39;5.70;;;2.57;;
10295;SDS011;5193;51.032;6.356;2022-10-22T05:43:04;8.03;;;2.90;;
10295;SDS011;5193;51.032;6.356;2022-10-22T05:45:30;8.87;;;2.80;;
10295;SDS011;5193;51.032;6.356;2022-10-22T05:48:00;4.77;;;2.43;;
10295;SDS011;5193;51.032;6.356;2022-10-22T05:50:25;4.60;;;2.63;;
10295;SDS011;5193;51.032;6.356;2022-10-22T05:52:51;5.37;;;2.40;;
10295;SDS011;5193;51.032;6.356;2022-10-22T05:55:17;3.40;;;2.50;;
10295;SDS011;5193;51.032;6.356;2022-10-22T05:57:43;4.67;;;2.67;;
10295;SDS011;5193;51.032;6.356;2022-10-22T06:00:09;4.67;;;2.40;;
10295;SDS011;5193;51.032;6.356;2022-10-22T06:02:35;9.00;;;2.70;;
10295;SDS011;5193;51.032;6.356;2022-10-22T06:05:00;3.57;;;2.33;;
10295;SDS011;5193;51.032;6.356;2022-10-22T06:07:26;5.30;;;2.73;;
10295;SDS011;5193;51.032;6.356;2022-10-22T06:09:52;5.83;;;2.13;;
10295;SDS011;5193;51.032;6.356;2022-10-22T06:12:19;6.27;;;2.37;;
10295;SDS011;5193;51.032;6.356;2022-10-22T06:14:45;6.70;;;2.20;;
10295;SDS011;5193;51.032;6.356;2022-10-22T06:17:11;4.13;;;2.27;;
10295;SDS011;5193;51.032;6.356;2022-10-22T06:19:37;8.17;;;2.50;;
10295;SDS011;5193;51.032;6.356;2022-10-22T06:22:03;4.10;;;1.97;;
10295;SDS011;5193;51.032;6.356;2022-10-22T06:24:30;8.20;;;1.97;;
10295;SDS011;5193;51.032;6.356;2022-10-22T06:26:56;7.13;;;2.20;;
10295;SDS011;5193;51.032;6.356;2022-10-22T06:29:22;6.90;;;2.50;;
10295;SDS011;5193;51.032;6.356;2022-10-22T06:31:47;6.77;;;2.17;;
10295;SDS011;5193;51.032;6.356;2022-10-22T06:34:13;3.60;;;1.80;;
10295;SDS011;5193;51.032;6.356;2022-10-22T06:36:42;7.77;;;2.20;;
10295;SDS011;5193;51.032;6.356;2022-10-22T06:39:09;5.00;;;1.80;;
10295;SDS011;5193;51.032;6.356;2022-10-22T06:41:36;8.53;;;2.13;;
10295;SDS011;5193;51.032;6.356;2022-10-22T06:44:02;9.33;;;2.30;;
10295;SDS011;5193;51.032;6.356;2022-10-22T06:46:28;8.90;;;2.30;;
10295;SDS011;5193;51.032;6.356;2022-10-22T06:48:56;4.40;;;1.83;;
10295;SDS011;5193;51.032;6.356;2022-10-22T06:51:24;7.20;;;2.40;;
10295;SDS011;5193;51.032;6.356;2022-10-22T06:53:51;10.30;;;2.40;;
10295;SDS011;5193;51.032;6.356;2022-10-22T06:56:18;5.93;;;2.20;;
10295;SDS011;5193;51.032;6.356;2022-10-22T06:58:48;8.77;;;2.13;;
10295;SDS011;5193;51.032;6.356;2022-10-22T07:01:16;7.50;;;2.50;;
10295;SDS011;5193;51.032;6.356;2022-10-22T07:03:44;8.53;;;1.97;;
10295;SDS011;5193;51.032;6.356;2022-10-22T07:06:13;8.93;;;2.27;;
10295;SDS011;5193;51.032;6.356;2022-10-22T07:08:39;8.30;;;2.40;;
10295;SDS011;5193;51.032;6.356;2022-10-22T07:11:09;10.13;;;2.27;;
10295;SDS011;5193;51.032;6.356;2022-10-22T07:13:38;7.70;;;2.23;;
10295;SDS011;5193;51.032;6.356;2022-10-22T07:16:03;5.63;;;2.20;;
10295;SDS011;5193;51.032;6.356;2022-10-22T07:18:30;12.23;;;2.30;;
10295;SDS011;5193;51.032;6.356;2022-10-22T07:20:56;13.03;;;2.33;;
10295;SDS011;5193;51.032;6.356;2022-10-22T07:23:22;6.67;;;2.40;;
10295;SDS011;5193;51.032;6.356;2022-10-22T07:25:48;12.27;;;2.77;;
10295;SDS011;5193;51.032;6.356;2022-10-22T07:28:13;8.10;;;1.97;;
10295;SDS011;5193;51.032;6.356;2022-10-22T07:30:39;5.83;;;1.97;;
10295;SDS011;5193;51.032;6.356;2022-10-22T07:33:04;9.33;;;2.00;;
10295;SDS011;5193;51.032;6.356;2022-10-22T07:35:30;8.77;;;2.60;;
10295;SDS011;5193;51.032;6.356;2022-10-22T07:37:56;12.57;;;2.07;;
10295;SDS011;5193;51.032;6.356;2022-10-22T07:40:22;10.03;;;2.00;;
10295;SDS011;5193;51.032;6.356;2022-10-22T07:42:47;11.07;;;2.50;;
10295;SDS011;5193;51.032;6.356;2022-10-22T07:45:13;5.67;;;1.80;;
10295;SDS011;5193;51.032;6.356;2022-10-22T07:47:38;5.33;;;1.53;;
10295;SDS011;5193;51.032;6.356;2022-10-22T07:50:04;9.93;;;1.90;;
10295;SDS011;5193;51.032;6.356;2022-10-22T07:52:31;13.70;;;2.90;;
10295;SDS011;5193;51.032;6.356;2022-10-22T07:54:57;5.73;;;1.80;;
10295;SDS011;5193;51.032;6.356;2022-10-22T07:57:22;8.27;;;1.93;;
10295;SDS011;5193;51.032;6.356;2022-10-22T07:59:48;7.50;;;2.00;;
10295;SDS011;5193;51.032;6.356;2022-10-22T08:02:13;14.97;;;2.17;;
10295;SDS011;5193;51.032;6.356;2022-10-22T08:04:39;10.93;;;2.40;;
10295;SDS011;5193;51.032;6.356;2022-10-22T08:07:04;7.03;;;1.87;;
10295;SDS011;5193;51.032;6.356;2022-10-22T08:09:30;10.67;;;1.87;;
10295;SDS011;5193;51.032;6.356;2022-10-22T08:11:56;7.60;;;2.10;;
10295;SDS011;5193;51.032;6.356;2022-10-22T08:14:21;7.10;;;1.63;;
10295;SDS011;5193;51.032;6.356;2022-10-22T08:16:47;9.60;;;1.80;;
10295;SDS011;5193;51.032;6.356;2022-10-22T08:19:12;8.90;;;2.07;;
10295;SDS011;5193;51.032;6.356;2022-10-22T08:21:42;7.07;;;1.90;;
10295;SDS011;5193;51.032;6.356;2022-10-22T08:24:09;6.83;;;1.87;;
10295;SDS011;5193;51.032;6.356;2022-10-22T08:26:35;9.20;;;1.90;;
10295;SDS011;5193;51.032;6.356;2022-10-22T08:29:01;5.97;;;1.80;;
10295;SDS011;5193;51.032;6.356;2022-10-22T08:31:27;5.83;;;1.67;;
10295;SDS011;5193;51.032;6.356;2022-10-22T08:33:52;4.10;;;1.60;;
10295;SDS011;5193;51.032;6.356;2022-10-22T08:36:18;9.13;;;1.90;;
10295;SDS011;5193;51.032;6.356;2022-10-22T08:38:44;3.37;;;1.37;;
10295;SDS011;5193;51.032;6.356;2022-10-22T08:41:16;11.50;;;2.10;;
10295;SDS011;5193;51.032;6.356;2022-10-22T08:49:28;6.77;;;1.53;;
10295;SDS011;5193;51.032;6.356;2022-10-22T08:51:57;6.33;;;1.87;;
10295;SDS011;5193;51.032;6.356;2022-10-22T08:57:08;8.70;;;1.63;;
10295;SDS011;5193;51.032;6.356;2022-10-22T09:00:14;5.37;;;1.30;;
10295;SDS011;5193;51.032;6.356;2022-10-22T09:02:58;5.53;;;1.50;;
10295;SDS011;5193;51.032;6.356;2022-10-22T09:08:25;4.00;;;1.30;;
10295;SDS011;5193;51.032;6.356;2022-10-22T09:10:52;8.47;;;1.40;;
10295;SDS011;5193;51.032;6.356;2022-10-22T09:13:22;3.77;;;1.07;;
10295;SDS011;5193;51.032;6.356;2022-10-22T09:15:52;9.50;;;1.50;;
10295;SDS011;5193;51.032;6.356;2022-10-22T09:18:33;5.60;;;1.30;;
10295;SDS011;5193;51.032;6.356;2022-10-22T09:21:12;8.10;;;1.50;;
10295;SDS011;5193;51.032;6.356;2022-10-22T09:26:19;8.33;;;1.50;;
10295;SDS011;5193;51.032;6.356;2022-10-22T09:28:48;4.87;;;1.40;;
10295;SDS011;5193;51.032;6.356;2022-10-22T09:31:14;4.17;;;1.30;;
10295;SDS011;5193;51.032;6.356;2022-10-22T09:33:41;3.37;;;1.40;;
10295;SDS011;5193;51.032;6.356;2022-10-22T09:36:12;5.80;;;1.33;;
10295;SDS011;5193;51.032;6.356;2022-10-22T09:38:43;4.17;;;1.30;;
10295;SDS011;5193;51.032;6.356;2022-10-22T09:41:11;7.90;;;1.77;;
10295;SDS011;5193;51.032;6.356;2022-10-22T09:43:37;3.07;;;1.20;;
10295;SDS011;5193;51.032;6.356;2022-10-22T09:46:05;8.53;;;1.60;;
10295;SDS011;5193;51.032;6.356;2022-10-22T09:48:33;6.60;;;1.40;;
10295;SDS011;5193;51.032;6.356;2022-10-22T09:53:37;5.37;;;1.57;;
10295;SDS011;5193;51.032;6.356;2022-10-22T09:56:07;5.00;;;1.20;;
10295;SDS011;5193;51.032;6.356;2022-10-22T09:58:41;7.77;;;1.17;;
10295;SDS011;5193;51.032;6.356;2022-10-22T10:01:14;6.73;;;1.60;;
10295;SDS011;5193;51.032;6.356;2022-10-22T10:03:41;4.73;;;1.60;;
10295;SDS011;5193;51.032;6.356;2022-10-22T10:06:07;5.03;;;1.37;;
10295;SDS011;5193;51.032;6.356;2022-10-22T10:08:33;2.77;;;1.30;;
10295;SDS011;5193;51.032;6.356;2022-10-22T10:10:59;5.97;;;1.23;;
10295;SDS011;5193;51.032;6.356;2022-10-22T10:19:07;4.17;;;1.20;;
10295;SDS011;5193;51.032;6.356;2022-10-22T10:22:03;4.63;;;1.20;;
10295;SDS011;5193;51.032;6.356;2022-10-22T10:24:44;4.83;;;1.00;;
10295;SDS011;5193;51.032;6.356;2022-10-22T10:33:01;3.67;;;1.00;;
10295;SDS011;5193;51.032;6.356;2022-10-22T10:35:44;2.53;;;1.10;;
10295;SDS011;5193;51.032;6.356;2022-10-22T10:38:29;6.50;;;1.70;;
10295;SDS011;5193;51.032;6.356;2022-10-22T10:41:05;2.13;;;1.00;;
10295;SDS011;5193;51.032;6.356;2022-10-22T10:49:33;5.43;;;1.20;;
10295;SDS011;5193;51.032;6.356;2022-10-22T10:52:15;4.30;;;1.10;;
10295;SDS011;5193;51.032;6.356;2022-10-22T10:54:53;4.30;;;1.13;;
10295;SDS011;5193;51.032;6.356;2022-10-22T11:00:06;7.10;;;1.47;;
10295;SDS011;5193;51.032;6.356;2022-10-22T11:02:44;5.50;;;1.00;;
10295;SDS011;5193;51.032;6.356;2022-10-22T11:05:25;3.97;;;1.20;;
10295;SDS011;5193;51.032;6.356;2022-10-22T11:08:15;5.40;;;0.93;;
10295;SDS011;5193;51.032;6.356;2022-10-22T11:10:58;6.50;;;0.90;;
10295;SDS011;5193;51.032;6.356;2022-10-22T11:13:32;4.57;;;0.93;;
10295;SDS011;5193;51.032;6.356;2022-10-22T11:16:09;5.00;;;0.83;;
10295;SDS011;5193;51.032;6.356;2022-10-22T11:18:38;3.07;;;0.90;;
10295;SDS011;5193;51.032;6.356;2022-10-22T11:21:21;3.23;;;0.83;;
10295;SDS011;5193;51.032;6.356;2022-10-22T11:26:47;2.17;;;0.73;;
10295;SDS011;5193;51.032;6.356;2022-10-22T11:29:34;2.17;;;0.70;;
10295;SDS011;5193;51.032;6.356;2022-10-22T11:32:04;2.73;;;0.97;;
10295;SDS011;5193;51.032;6.356;2022-10-22T11:34:39;7.67;;;1.10;;
10295;SDS011;5193;51.032;6.356;2022-10-22T11:37:12;6.03;;;1.20;;
10295;SDS011;5193;51.032;6.356;2022-10-22T11:39:51;9.30;;;1.10;;
10295;SDS011;5193;51.032;6.356;2022-10-22T11:47:23;6.90;;;1.13;;
10295;SDS011;5193;51.032;6.356;2022-10-22T11:49:57;3.37;;;1.00;;
10295;SDS011;5193;51.032;6.356;2022-10-22T11:52:40;3.27;;;0.90;;
10295;SDS011;5193;51.032;6.356;2022-10-22T11:55:27;3.10;;;1.30;;
10295;SDS011;5193;51.032;6.356;2022-10-22T11:57:58;3.77;;;1.00;;
10295;SDS011;5193;51.032;6.356;2022-10-22T12:00:33;4.73;;;1.00;;
10295;SDS011;5193;51.032;6.356;2022-10-22T12:03:15;8.57;;;1.23;;
10295;SDS011;5193;51.032;6.356;2022-10-22T12:05:43;3.30;;;0.93;;
10295;SDS011;5193;51.032;6.356;2022-10-22T12:08:19;5.77;;;1.23;;
10295;SDS011;5193;51.032;6.356;2022-10-22T12:10:50;4.40;;;1.47;;
10295;SDS011;5193;51.032;6.356;2022-10-22T12:13:27;8.73;;;1.23;;
10295;SDS011;5193;51.032;6.356;2022-10-22T12:15:57;2.47;;;1.00;;
10295;SDS011;5193;51.032;6.356;2022-10-22T12:18:29;6.33;;;1.23;;
10295;SDS011;5193;51.032;6.356;2022-10-22T12:20:58;3.10;;;1.07;;
10295;SDS011;5193;51.032;6.356;2022-10-22T12:23:28;3.10;;;1.07;;
10295;SDS011;5193;51.032;6.356;2022-10-22T12:25:56;4.07;;;1.00;;
10295;SDS011;5193;51.032;6.356;2022-10-22T12:28:22;3.53;;;0.80;;
10295;SDS011;5193;51.032;6.356;2022-10-22T12:30:47;3.20;;;0.70;;
10295;SDS011;5193;51.032;6.356;2022-10-22T12:33:20;1.70;;;0.80;;
10295;SDS011;5193;51.032;6.356;2022-10-22T12:35:47;2.97;;;0.90;;
10295;SDS011;5193;51.032;6.356;2022-10-22T12:38:20;4.30;;;1.00;;
10295;SDS011;5193;51.032;6.356;2022-10-22T12:40:47;6.53;;;1.40;;
10295;SDS011;5193;51.032;6.356;2022-10-22T12:43:18;5.27;;;1.07;;
10295;SDS011;5193;51.032;6.356;2022-10-22T12:45:48;2.57;;;0.77;;
10295;SDS011;5193;51.032;6.356;2022-10-22T12:48:20;2.73;;;0.90;;
10295;SDS011;5193;51.032;6.356;2022-10-22T12:50:53;3.47;;;1.60;;
10295;SDS011;5193;51.032;6.356;2022-10-22T12:55:59;2.90;;;0.83;;
10295;SDS011;5193;51.032;6.356;2022-10-22T12:58:28;3.03;;;1.13;;
10295;SDS011;5193;51.032;6.356;2022-10-22T13:00:58;2.43;;;0.77;;
10295;SDS011;5193;51.032;6.356;2022-10-22T13:03:29;4.27;;;0.80;;
10295;SDS011;5193;51.032;6.356;2022-10-22T13:09:02;6.23;;;1.00;;
10295;SDS011;5193;51.032;6.356;2022-10-22T13:11:39;2.83;;;0.83;;
10295;SDS011;5193;51.032;6.356;2022-10-22T13:14:29;2.53;;;0.90;;
10295;SDS011;5193;51.032;6.356;2022-10-22T13:17:01;5.50;;;1.10;;
10295;SDS011;5193;51.032;6.356;2022-10-22T13:24:51;2.67;;;0.90;;
10295;SDS011;5193;51.032;6.356;2022-10-22T13:27:17;2.70;;;1.03;;
10295;SDS011;5193;51.032;6.356;2022-10-22T13:29:43;3.50;;;0.80;;
10295;SDS011;5193;51.032;6.356;2022-10-22T13:32:19;1.30;;;0.60;;
10295;SDS011;5193;51.032;6.356;2022-10-22T13:34:57;2.37;;;0.83;;
10295;SDS011;5193;51.032;6.356;2022-10-22T13:37:26;1.87;;;0.90;;
10295;SDS011;5193;51.032;6.356;2022-10-22T13:39:53;4.53;;;0.90;;
10295;SDS011;5193;51.032;6.356;2022-10-22T13:42:19;1.80;;;0.73;;
10295;SDS011;5193;51.032;6.356;2022-10-22T13:44:45;2.93;;;1.20;;
10295;SDS011;5193;51.032;6.356;2022-10-22T13:47:16;2.20;;;0.90;;
10295;SDS011;5193;51.032;6.356;2022-10-22T13:49:47;7.67;;;1.13;;
10295;SDS011;5193;51.032;6.356;2022-10-22T13:52:26;4.80;;;1.30;;
10295;SDS011;5193;51.032;6.356;2022-10-22T13:55:00;2.83;;;0.87;;
10295;SDS011;5193;51.032;6.356;2022-10-22T13:57:36;4.07;;;0.80;;
10295;SDS011;5193;51.032;6.356;2022-10-22T14:00:01;2.10;;;1.10;;
10295;SDS011;5193;51.032;6.356;2022-10-22T14:02:27;2.90;;;0.70;;
10295;SDS011;5193;51.032;6.356;2022-10-22T14:04:53;5.57;;;1.03;;
10295;SDS011;5193;51.032;6.356;2022-10-22T14:07:19;4.87;;;1.17;;
10295;SDS011;5193;51.032;6.356;2022-10-22T14:09:45;5.87;;;1.20;;
10295;SDS011;5193;51.032;6.356;2022-10-22T14:12:14;1.77;;;0.90;;
10295;SDS011;5193;51.032;6.356;2022-10-22T14:14:41;3.33;;;1.23;;
10295;SDS011;5193;51.032;6.356;2022-10-22T14:17:13;2.80;;;0.80;;
10295;SDS011;5193;51.032;6.356;2022-10-22T14:19:44;1.30;;;0.60;;
10295;SDS011;5193;51.032;6.356;2022-10-22T14:22:13;1.43;;;0.60;;
10295;SDS011;5193;51.032;6.356;2022-10-22T14:24:43;3.17;;;0.90;;
10295;SDS011;5193;51.032;6.356;2022-10-22T14:27:11;9.03;;;1.57;;
10295;SDS011;5193;51.032;6.356;2022-10-22T14:29:38;3.60;;;1.00;;
10295;SDS011;5193;51.032;6.356;2022-10-22T14:32:10;3.53;;;0.90;;
10295;SDS011;5193;51.032;6.356;2022-10-22T14:34:38;1.80;;;1.00;;
10295;SDS011;5193;51.032;6.356;2022-10-22T14:37:04;1.90;;;0.90;;
10295;SDS011;5193;51.032;6.356;2022-10-22T14:39:29;3.00;;;1.60;;
10295;SDS011;5193;51.032;6.356;2022-10-22T14:41:55;4.10;;;0.80;;
10295;SDS011;5193;51.032;6.356;2022-10-22T14:44:20;2.30;;;0.90;;
10295;SDS011;5193;51.032;6.356;2022-10-22T14:46:48;5.03;;;1.00;;
10295;SDS011;5193;51.032;6.356;2022-10-22T14:49:13;5.47;;;1.10;;
10295;SDS011;5193;51.032;6.356;2022-10-22T14:51:39;6.80;;;1.43;;
10295;SDS011;5193;51.032;6.356;2022-10-22T14:54:04;2.63;;;0.93;;
10295;SDS011;5193;51.032;6.356;2022-10-22T14:56:30;2.90;;;1.53;;
10295;SDS011;5193;51.032;6.356;2022-10-22T14:58:55;2.73;;;0.83;;
10295;SDS011;5193;51.032;6.356;2022-10-22T15:01:21;4.67;;;1.40;;
10295;SDS011;5193;51.032;6.356;2022-10-22T15:03:47;5.33;;;2.07;;
10295;SDS011;5193;51.032;6.356;2022-10-22T15:06:12;7.67;;;1.47;;
10295;SDS011;5193;51.032;6.356;2022-10-22T15:08:38;4.03;;;1.00;;
10295;SDS011;5193;51.032;6.356;2022-10-22T15:11:04;8.73;;;2.90;;
10295;SDS011;5193;51.032;6.356;2022-10-22T15:13:32;3.43;;;1.23;;
10295;SDS011;5193;51.032;6.356;2022-10-22T15:15:59;3.43;;;1.23;;
10295;SDS011;5193;51.032;6.356;2022-10-22T15:18:25;6.17;;;1.70;;
10295;SDS011;5193;51.032;6.356;2022-10-22T15:20:57;3.10;;;1.00;;
10295;SDS011;5193;51.032;6.356;2022-10-22T15:23:25;6.87;;;2.60;;
10295;SDS011;5193;51.032;6.356;2022-10-22T15:25:51;4.13;;;1.80;;
10295;SDS011;5193;51.032;6.356;2022-10-22T15:28:17;8.67;;;2.47;;
10295;SDS011;5193;51.032;6.356;2022-10-22T15:30:42;4.73;;;1.40;;
10295;SDS011;5193;51.032;6.356;2022-10-22T15:33:08;6.27;;;1.33;;
10295;SDS011;5193;51.032;6.356;2022-10-22T15:35:34;1.63;;;0.70;;
10295;SDS011;5193;51.032;6.356;2022-10-22T15:38:00;4.70;;;1.20;;
10295;SDS011;5193;51.032;6.356;2022-10-22T15:40:26;3.87;;;1.00;;
10295;SDS011;5193;51.032;6.356;2022-10-22T15:42:51;2.63;;;0.80;;
10295;SDS011;5193;51.032;6.356;2022-10-22T15:45:17;5.00;;;0.80;;
10295;SDS011;5193;51.032;6.356;2022-10-22T15:47:46;3.37;;;1.00;;
10295;SDS011;5193;51.032;6.356;2022-10-22T15:50:11;2.03;;;0.90;;
10295;SDS011;5193;51.032;6.356;2022-10-22T15:52:37;2.63;;;0.90;;
10295;SDS011;5193;51.032;6.356;2022-10-22T15:55:03;3.23;;;0.83;;
10295;SDS011;5193;51.032;6.356;2022-10-22T15:57:31;1.40;;;0.80;;
10295;SDS011;5193;51.032;6.356;2022-10-22T15:59:56;3.00;;;0.83;;
10295;SDS011;5193;51.032;6.356;2022-10-22T16:02:22;3.90;;;0.80;;
10295;SDS011;5193;51.032;6.356;2022-10-22T16:04:48;2.73;;;0.90;;
10295;SDS011;5193;51.032;6.356;2022-10-22T16:07:13;2.97;;;0.97;;
10295;SDS011;5193;51.032;6.356;2022-10-22T16:09:39;2.27;;;1.00;;
10295;SDS011;5193;51.032;6.356;2022-10-22T16:12:05;3.67;;;0.90;;
10295;SDS011;5193;51.032;6.356;2022-10-22T16:14:30;3.03;;;0.67;;
10295;SDS011;5193;51.032;6.356;2022-10-22T16:16:56;3.70;;;0.70;;
10295;SDS011;5193;51.032;6.356;2022-10-22T16:19:23;3.43;;;0.87;;
10295;SDS011;5193;51.032;6.356;2022-10-22T16:21:50;5.50;;;0.93;;
10295;SDS011;5193;51.032;6.356;2022-10-22T16:24:17;3.43;;;1.20;;
10295;SDS011;5193;51.032;6.356;2022-10-22T16:26:43;4.57;;;1.10;;
10295;SDS011;5193;51.032;6.356;2022-10-22T16:29:08;3.07;;;0.83;;
10295;SDS011;5193;51.032;6.356;2022-10-22T16:31:36;4.67;;;1.03;;